createdAt,value
2023-04-26T00:00:09.527Z,99.04
2023-04-26T00:03:00.420Z,99.25
2023-04-26T00:05:29.910Z,99.37
2023-04-26T00:07:58.640Z,99.86
2023-04-26T00:10:27.509Z,99.88
2023-04-26T00:12:55.960Z,99.97
2023-04-26T00:15:24.379Z,100.00
2023-04-26T00:17:53.242Z,100.00
2023-04-26T00:20:21.970Z,100.00
2023-04-26T00:22:50.938Z,100.00
2023-04-26T00:25:19.518Z,99.96
2023-04-26T00:27:47.982Z,99.99
2023-04-26T00:30:16.405Z,99.97
2023-04-26T00:32:44.961Z,100.00
2023-04-26T00:35:13.582Z,99.96
2023-04-26T00:37:42.300Z,99.97
2023-04-26T00:40:11.323Z,99.97
2023-04-26T00:42:40.888Z,100.00
2023-04-26T00:45:09.432Z,99.96
2023-04-26T00:47:37.846Z,99.89
2023-04-26T00:50:07.460Z,99.59
2023-04-26T00:52:35.842Z,99.12
2023-04-26T00:55:04.313Z,98.61
2023-04-26T00:57:32.655Z,98.34
2023-04-26T01:00:01.410Z,98.25
2023-04-26T01:02:29.922Z,98.10
2023-04-26T01:04:58.437Z,97.87
2023-04-26T01:07:26.890Z,97.83
2023-04-26T01:09:55.707Z,98.04
2023-04-26T01:12:24.645Z,98.10
2023-04-26T01:14:53.570Z,98.20
2023-04-26T01:17:21.867Z,98.38
2023-04-26T01:19:50.676Z,98.38
2023-04-26T01:22:19.299Z,98.44
2023-04-26T01:24:51.330Z,98.96
2023-04-26T01:27:19.787Z,99.05
2023-04-26T01:29:49.234Z,98.85
2023-04-26T01:32:17.676Z,98.84
2023-04-26T01:34:46.817Z,98.78
2023-04-26T01:37:15.155Z,98.80
2023-04-26T01:39:51.172Z,98.81
2023-04-26T01:42:22.367Z,98.94
2023-04-26T01:44:51.160Z,98.90
2023-04-26T01:47:19.581Z,99.08
2023-04-26T01:49:47.975Z,98.63
2023-04-26T01:52:16.979Z,98.53
2023-04-26T01:54:47.461Z,98.43
2023-04-26T01:57:15.817Z,98.41
2023-04-26T01:59:46.236Z,98.70
2023-04-26T02:02:17.029Z,98.64
2023-04-26T02:04:45.810Z,98.65
2023-04-26T02:07:14.718Z,98.56
2023-04-26T02:09:47.257Z,98.57
2023-04-26T02:12:15.606Z,98.57
2023-04-26T02:14:43.985Z,98.66
2023-04-26T02:17:12.340Z,98.74
2023-04-26T02:19:40.845Z,98.43
2023-04-26T02:22:10.711Z,98.80
2023-04-26T02:24:42.444Z,98.67
2023-04-26T02:27:10.794Z,98.84
2023-04-26T02:29:43.834Z,98.92
2023-04-26T02:32:13.872Z,99.52
2023-04-26T02:34:43.337Z,99.72
2023-04-26T02:37:12.019Z,99.72
2023-04-26T02:39:40.564Z,99.18
2023-04-26T02:42:12.573Z,98.93
2023-04-26T02:44:41.108Z,98.84
2023-04-26T02:47:10.145Z,98.95
2023-04-26T02:49:38.748Z,98.68
2023-04-26T02:52:07.554Z,98.97
2023-04-26T02:54:36.085Z,98.82
2023-04-26T02:57:04.792Z,99.24
2023-04-26T02:59:33.240Z,99.39
2023-04-26T03:02:01.673Z,99.71
2023-04-26T03:04:34.150Z,99.64
2023-04-26T03:07:03.742Z,99.62
2023-04-26T03:09:32.277Z,99.59
2023-04-26T03:12:01.034Z,99.54
2023-04-26T03:14:29.349Z,99.88
2023-04-26T03:16:57.905Z,99.85
2023-04-26T03:19:28.436Z,99.98
2023-04-26T03:21:56.938Z,99.96
2023-04-26T03:24:25.504Z,99.49
2023-04-26T03:26:53.897Z,99.40
2023-04-26T03:29:22.326Z,99.59
2023-04-26T03:31:51.489Z,96.06
2023-04-26T03:34:19.832Z,92.72
2023-04-26T03:36:48.190Z,92.13
2023-04-26T03:39:16.794Z,89.40
2023-04-26T03:41:45.396Z,87.60
2023-04-26T03:44:14.561Z,88.30
2023-04-26T03:46:48.247Z,89.37
2023-04-26T03:49:16.787Z,90.89
2023-04-26T03:51:45.883Z,92.19
2023-04-26T03:54:14.308Z,93.96
2023-04-26T03:56:42.958Z,94.09
2023-04-26T03:59:12.072Z,95.57
2023-04-26T04:01:40.956Z,96.86
2023-04-26T04:04:10.338Z,97.30
2023-04-26T04:06:40.630Z,97.29
2023-04-26T04:09:11.382Z,97.10
2023-04-26T04:11:39.774Z,97.15
2023-04-26T04:14:08.123Z,97.17
2023-04-26T04:16:36.636Z,97.33
2023-04-26T04:19:05.474Z,96.73
2023-04-26T04:21:34.102Z,96.46
2023-04-26T04:24:02.669Z,96.53
2023-04-26T04:26:31.274Z,96.17
2023-04-26T04:29:09.081Z,95.74
2023-04-26T04:31:40.258Z,94.80
2023-04-26T04:34:10.216Z,94.23
2023-04-26T04:36:43.623Z,94.04
2023-04-26T04:39:16.473Z,92.94
2023-04-26T04:41:49.215Z,92.30
2023-04-26T04:44:19.727Z,92.84
2023-04-26T04:46:48.471Z,91.69
2023-04-26T04:49:19.548Z,92.00
2023-04-26T04:51:48.295Z,91.80
2023-04-26T04:54:18.266Z,91.99
2023-04-26T04:56:48.450Z,92.53
2023-04-26T04:59:17.983Z,92.67
2023-04-26T05:01:47.153Z,92.36
2023-04-26T05:04:17.662Z,92.79
2023-04-26T05:06:46.320Z,92.08
2023-04-26T05:09:15.169Z,91.61
2023-04-26T05:11:44.104Z,90.91
2023-04-26T05:14:13.017Z,91.00
2023-04-26T05:16:41.815Z,91.50
2023-04-26T05:19:10.615Z,91.62
2023-04-26T05:21:39.463Z,91.43
2023-04-26T05:24:08.171Z,91.23
2023-04-26T05:26:37.573Z,91.39
2023-04-26T05:29:11.596Z,92.02
2023-04-26T05:32:04.276Z,92.15
2023-04-26T05:34:41.945Z,92.45
2023-04-26T05:37:13.880Z,92.42
2023-04-26T05:39:42.326Z,91.21
2023-04-26T05:42:11.004Z,90.47
2023-04-26T05:44:39.663Z,89.34
2023-04-26T05:47:08.554Z,89.03
2023-04-26T05:49:37.260Z,89.27
2023-04-26T05:52:06.030Z,89.01
2023-04-26T05:54:34.384Z,88.89
2023-04-26T05:57:03.879Z,88.54
2023-04-26T05:59:36.821Z,89.03
2023-04-26T06:02:05.790Z,89.23
2023-04-26T06:04:34.308Z,89.48
2023-04-26T06:07:10.090Z,88.90
2023-04-26T06:09:38.573Z,88.94
2023-04-26T06:12:07.289Z,88.18
2023-04-26T06:14:37.291Z,88.33
2023-04-26T06:17:09.796Z,87.74
2023-04-26T06:19:38.325Z,87.89
2023-04-26T06:22:06.782Z,87.35
2023-04-26T06:24:35.520Z,87.76
2023-04-26T06:27:04.049Z,86.95
2023-04-26T06:29:35.812Z,86.53
2023-04-26T06:32:04.927Z,86.46
2023-04-26T06:34:35.855Z,86.30
2023-04-26T06:37:05.616Z,85.50
2023-04-26T06:39:35.901Z,85.63
2023-04-26T06:42:05.533Z,85.51
2023-04-26T06:44:56.408Z,85.58
2023-04-26T06:47:25.165Z,86.02
2023-04-26T06:49:56.979Z,86.72
2023-04-26T06:52:29.993Z,86.76
2023-04-26T06:55:03.870Z,86.03
2023-04-26T06:57:32.516Z,85.52
2023-04-26T07:00:01.086Z,85.65
2023-04-26T07:02:29.734Z,85.79
2023-04-26T07:04:58.732Z,86.18
2023-04-26T07:07:27.777Z,85.72
2023-04-26T07:09:56.340Z,85.40
2023-04-26T07:12:24.761Z,84.59
2023-04-26T07:14:53.177Z,84.16
2023-04-26T07:17:22.640Z,84.32
2023-04-26T07:19:51.108Z,84.12
2023-04-26T07:22:20.022Z,84.74
2023-04-26T07:24:48.539Z,85.62
2023-04-26T07:27:17.090Z,86.92
2023-04-26T07:29:46.037Z,87.55
2023-04-26T07:32:14.814Z,88.69
2023-04-26T07:34:43.621Z,88.88
2023-04-26T07:37:12.567Z,89.22
2023-04-26T07:39:41.030Z,89.01
2023-04-26T07:42:09.394Z,88.78
2023-04-26T07:44:37.714Z,88.17
2023-04-26T07:47:06.417Z,88.29
2023-04-26T07:49:34.762Z,88.63
2023-04-26T07:52:03.881Z,88.84
2023-04-26T07:54:32.472Z,89.81
2023-04-26T07:57:03.867Z,89.84
2023-04-26T07:59:32.638Z,90.45
2023-04-26T08:02:01.034Z,90.98
2023-04-26T08:04:36.820Z,90.77
2023-04-26T08:09:49.522Z,90.65
2023-04-26T08:12:18.013Z,91.04
2023-04-26T08:14:46.780Z,90.52
2023-04-26T08:17:15.329Z,91.24
2023-04-26T08:19:43.788Z,90.60
2023-04-26T08:22:14.252Z,90.22
2023-04-26T08:24:43.170Z,90.22
2023-04-26T08:27:12.640Z,90.48
2023-04-26T08:29:41.549Z,90.95
2023-04-26T08:32:09.907Z,90.88
2023-04-26T08:34:38.252Z,90.97
2023-04-26T08:37:09.506Z,91.17
2023-04-26T08:39:37.924Z,91.49
2023-04-26T08:42:16.307Z,90.10
2023-04-26T08:44:46.018Z,89.43
2023-04-26T08:47:18.286Z,89.22
2023-04-26T08:49:53.837Z,89.71
2023-04-26T08:52:23.625Z,89.52
2023-04-26T08:54:53.700Z,88.46
2023-04-26T08:57:22.853Z,88.13
2023-04-26T08:59:53.249Z,88.60
2023-04-26T09:02:23.575Z,89.02
2023-04-26T09:04:53.305Z,88.66
2023-04-26T09:07:24.496Z,88.88
2023-04-26T09:09:55.198Z,88.34
2023-04-26T09:12:23.971Z,87.13
2023-04-26T09:14:53.453Z,87.51
2023-04-26T09:17:33.291Z,87.54
2023-04-26T09:20:07.207Z,88.37
2023-04-26T09:22:37.756Z,89.50
2023-04-26T09:25:07.574Z,89.39
2023-04-26T09:27:44.050Z,88.76
2023-04-26T09:30:17.844Z,90.49
2023-04-26T09:32:51.637Z,90.50
2023-04-26T09:35:28.523Z,89.93
2023-04-26T09:38:02.976Z,88.84
2023-04-26T09:40:41.533Z,89.24
2023-04-26T09:43:10.461Z,88.04
2023-04-26T09:45:54.136Z,87.27
2023-04-26T09:48:30.710Z,87.36
2023-04-26T09:51:10.949Z,87.85
2023-04-26T09:53:50.660Z,86.38
2023-04-26T09:56:21.084Z,86.80
2023-04-26T09:59:01.406Z,86.52
2023-04-26T10:01:30.670Z,86.22
2023-04-26T10:04:01.994Z,85.89
2023-04-26T10:06:30.707Z,85.55
2023-04-26T10:08:59.622Z,85.80
2023-04-26T10:11:30.204Z,84.64
2023-04-26T10:13:58.926Z,84.97
2023-04-26T10:16:28.238Z,85.33
2023-04-26T10:18:56.873Z,86.01
2023-04-26T10:21:31.858Z,85.37
2023-04-26T10:24:01.629Z,85.74
2023-04-26T10:26:53.629Z,86.27
2023-04-26T10:29:22.505Z,84.77
2023-04-26T10:32:20.873Z,84.75
2023-04-26T10:35:14.427Z,84.54
2023-04-26T10:38:07.142Z,84.64
2023-04-26T10:40:40.377Z,83.62
2023-04-26T10:43:12.196Z,83.20
2023-04-26T10:45:42.304Z,83.52
2023-04-26T10:48:28.803Z,82.25
2023-04-26T10:51:12.583Z,82.34
2023-04-26T10:53:47.266Z,82.20
2023-04-26T10:56:28.920Z,81.89
2023-04-26T10:59:33.159Z,82.58
2023-04-26T11:02:02.696Z,83.14
2023-04-26T11:04:53.160Z,82.93
2023-04-26T11:07:42.013Z,80.79
2023-04-26T11:10:22.760Z,81.14
2023-04-26T11:13:01.234Z,81.13
2023-04-26T11:15:32.885Z,81.58
2023-04-26T11:18:05.345Z,80.72
2023-04-26T11:20:34.680Z,80.25
2023-04-26T11:23:03.346Z,80.61
2023-04-26T11:25:31.922Z,80.42
2023-04-26T11:28:03.738Z,81.23
2023-04-26T11:30:32.907Z,81.23
2023-04-26T11:33:02.637Z,81.99
2023-04-26T11:35:35.189Z,80.75
2023-04-26T11:38:06.867Z,81.19
2023-04-26T11:40:37.491Z,82.41
2023-04-26T11:43:06.786Z,82.33
2023-04-26T11:45:36.699Z,82.75
2023-04-26T11:48:08.315Z,82.69
2023-04-26T11:50:37.472Z,82.28
2023-04-26T11:53:08.334Z,80.97
2023-04-26T11:55:37.108Z,80.54
2023-04-26T11:58:15.973Z,78.84
2023-04-26T12:00:58.614Z,78.09
2023-04-26T12:03:38.107Z,77.19
2023-04-26T12:06:06.939Z,77.11
2023-04-26T12:08:35.682Z,76.85
2023-04-26T12:11:04.260Z,76.73
2023-04-26T12:13:33.690Z,76.59
2023-04-26T12:18:38.570Z,75.28
2023-04-26T12:21:07.284Z,74.33
2023-04-26T12:23:40.422Z,74.83
2023-04-26T12:26:11.352Z,74.73
2023-04-26T12:28:40.213Z,74.83
2023-04-26T12:31:08.955Z,74.38
2023-04-26T12:33:37.518Z,74.72
2023-04-26T12:36:08.136Z,73.50
2023-04-26T12:38:36.796Z,72.59
2023-04-26T12:41:06.129Z,72.91
2023-04-26T12:43:34.703Z,73.62
2023-04-26T12:46:03.424Z,73.53
2023-04-26T12:48:31.874Z,73.38
2023-04-26T12:51:00.675Z,73.66
2023-04-26T12:53:29.262Z,73.28
2023-04-26T12:55:57.637Z,73.30
2023-04-26T12:58:28.911Z,74.24
2023-04-26T13:00:59.325Z,74.95
2023-04-26T13:03:27.993Z,74.69
2023-04-26T13:05:56.957Z,74.75
2023-04-26T13:08:25.911Z,74.16
2023-04-26T13:10:54.319Z,74.83
2023-04-26T13:13:32.313Z,74.86
2023-04-26T13:16:08.657Z,74.91
2023-04-26T13:18:37.054Z,74.41
2023-04-26T13:21:06.490Z,74.26
2023-04-26T13:23:35.004Z,73.25
2023-04-26T13:26:03.365Z,72.80
2023-04-26T13:28:31.910Z,72.75
2023-04-26T13:31:00.639Z,73.04
2023-04-26T13:33:29.173Z,72.70
2023-04-26T13:35:57.616Z,72.60
2023-04-26T13:38:26.893Z,72.39
2023-04-26T13:40:55.643Z,72.70
2023-04-26T13:43:24.033Z,73.07
2023-04-26T13:45:52.496Z,74.15
2023-04-26T13:48:20.835Z,74.97
2023-04-26T13:50:49.235Z,74.97
2023-04-26T13:53:18.023Z,75.63
2023-04-26T13:55:46.368Z,75.41
2023-04-26T13:58:15.036Z,75.48
2023-04-26T14:00:43.805Z,75.48
2023-04-26T14:03:15.538Z,74.93
2023-04-26T14:05:44.209Z,74.58
2023-04-26T14:08:12.888Z,73.99
2023-04-26T14:10:41.423Z,74.08
2023-04-26T14:13:09.805Z,74.65
2023-04-26T14:15:38.191Z,74.51
2023-04-26T14:18:06.703Z,73.53
2023-04-26T14:20:35.068Z,73.37
2023-04-26T14:23:03.684Z,74.04
2023-04-26T14:25:32.086Z,74.58
2023-04-26T14:28:01.837Z,75.25
2023-04-26T14:30:30.365Z,76.07
2023-04-26T14:32:58.816Z,76.28
2023-04-26T14:35:27.247Z,75.23
2023-04-26T14:37:55.623Z,74.71
2023-04-26T14:40:24.032Z,74.38
2023-04-26T14:42:52.452Z,73.67
2023-04-26T14:45:23.680Z,72.89
2023-04-26T14:47:56.409Z,72.83
2023-04-26T14:50:24.825Z,72.36
2023-04-26T14:52:53.253Z,71.71
2023-04-26T14:55:24.354Z,70.90
2023-04-26T14:57:53.412Z,71.21
2023-04-26T15:00:22.967Z,71.71
2023-04-26T15:02:51.701Z,72.52
2023-04-26T15:05:21.677Z,72.83
2023-04-26T15:07:50.043Z,73.14
2023-04-26T15:10:18.433Z,73.36
2023-04-26T15:12:46.990Z,73.72
2023-04-26T15:15:15.748Z,71.76
2023-04-26T15:17:44.424Z,69.63
2023-04-26T15:20:13.117Z,69.38
2023-04-26T15:22:41.837Z,69.44
2023-04-26T15:25:11.515Z,70.38
2023-04-26T15:27:39.869Z,70.94
2023-04-26T15:30:11.478Z,70.98
2023-04-26T15:32:39.921Z,71.57
2023-04-26T15:35:12.810Z,72.70
2023-04-26T15:37:41.276Z,73.09
2023-04-26T15:40:10.740Z,73.78
2023-04-26T15:42:39.689Z,73.99
2023-04-26T15:45:08.643Z,74.67
2023-04-26T15:47:37.342Z,75.82
2023-04-26T15:50:08.135Z,76.29
2023-04-26T15:52:39.311Z,75.43
2023-04-26T15:55:08.320Z,74.89
2023-04-26T15:57:36.985Z,75.33
2023-04-26T16:00:08.675Z,76.18
2023-04-26T16:02:37.592Z,77.07
2023-04-26T16:05:08.620Z,76.77
2023-04-26T16:07:40.676Z,76.51
2023-04-26T16:10:09.899Z,76.41
2023-04-26T16:12:41.887Z,76.52
2023-04-26T16:15:10.855Z,76.46
2023-04-26T16:17:39.535Z,75.93
2023-04-26T16:20:08.538Z,75.59
2023-04-26T16:22:37.002Z,75.46
2023-04-26T16:25:07.217Z,72.46
2023-04-26T16:27:36.187Z,70.11
2023-04-26T16:30:04.860Z,70.29
2023-04-26T16:32:33.291Z,70.22
2023-04-26T16:35:01.848Z,70.74
2023-04-26T16:37:30.974Z,71.69
2023-04-26T16:39:59.432Z,71.87
2023-04-26T16:42:36.499Z,72.25
2023-04-26T16:45:05.287Z,72.66
2023-04-26T16:47:34.369Z,72.51
2023-04-26T16:50:04.667Z,72.59
2023-04-26T16:52:32.956Z,72.52
2023-04-26T16:55:02.404Z,72.79
2023-04-26T16:57:30.738Z,73.33
2023-04-26T16:59:59.176Z,73.69
2023-04-26T17:02:27.733Z,74.03
2023-04-26T17:04:56.401Z,74.35
2023-04-26T17:07:25.264Z,74.35
2023-04-26T17:09:55.234Z,75.00
2023-04-26T17:12:23.914Z,75.23
2023-04-26T17:14:52.299Z,74.65
2023-04-26T17:17:21.505Z,74.77
2023-04-26T17:19:50.174Z,75.66
2023-04-26T17:22:18.566Z,75.53
2023-04-26T17:24:46.895Z,75.41
2023-04-26T17:27:15.219Z,75.75
2023-04-26T17:29:44.508Z,76.12
2023-04-26T17:32:12.923Z,76.46
2023-04-26T17:34:41.399Z,76.74
2023-04-26T17:37:09.787Z,77.05
2023-04-26T17:39:38.276Z,77.00
2023-04-26T17:42:06.648Z,77.70
2023-04-26T17:44:35.047Z,77.92
2023-04-26T17:47:04.002Z,78.23
2023-04-26T17:49:32.611Z,78.61
2023-04-26T17:52:00.975Z,78.60
2023-04-26T17:54:29.693Z,78.68
2023-04-26T17:56:58.707Z,78.13
2023-04-26T17:59:27.039Z,77.93
2023-04-26T18:01:55.432Z,78.02
2023-04-26T18:04:24.295Z,77.75
2023-04-26T18:06:52.944Z,77.34
2023-04-26T18:09:21.890Z,77.07
2023-04-26T18:11:50.432Z,76.41
2023-04-26T18:14:18.756Z,76.61
2023-04-26T18:16:47.350Z,76.60
2023-04-26T18:19:16.382Z,76.39
2023-04-26T18:21:44.697Z,76.15
2023-04-26T18:24:13.015Z,76.51
2023-04-26T18:26:41.764Z,76.17
2023-04-26T18:29:10.123Z,76.46
2023-04-26T18:31:39.500Z,76.49
2023-04-26T18:34:07.939Z,76.88
2023-04-26T18:36:36.552Z,76.97
2023-04-26T18:39:04.984Z,76.85
2023-04-26T18:41:33.301Z,77.12
2023-04-26T18:44:01.848Z,76.61
2023-04-26T18:46:30.286Z,77.11
2023-04-26T18:48:58.693Z,77.09
2023-04-26T18:51:27.305Z,77.07
2023-04-26T18:53:55.696Z,77.26
2023-04-26T18:56:24.451Z,77.25
2023-04-26T18:58:52.773Z,77.35
2023-04-26T19:01:21.399Z,77.18
2023-04-26T19:03:50.123Z,76.84
2023-04-26T19:06:18.673Z,76.85
2023-04-26T19:08:47.167Z,76.99
2023-04-26T19:11:15.692Z,76.91
2023-04-26T19:13:44.543Z,76.73
2023-04-26T19:16:13.054Z,76.67
2023-04-26T19:18:42.180Z,76.37
2023-04-26T19:21:11.806Z,76.34
2023-04-26T19:23:40.123Z,75.91
2023-04-26T19:26:10.182Z,76.19
2023-04-26T19:28:38.427Z,76.09
2023-04-26T19:31:07.203Z,76.15
2023-04-26T19:33:37.216Z,75.43
2023-04-26T19:36:05.954Z,75.77
2023-04-26T19:38:34.425Z,75.79
2023-04-26T19:41:02.814Z,76.10
2023-04-26T19:43:31.539Z,75.96
2023-04-26T19:45:59.858Z,76.24
2023-04-26T19:48:28.265Z,76.30
2023-04-26T19:50:56.532Z,76.36
2023-04-26T19:53:24.690Z,76.27
2023-04-26T19:55:53.027Z,76.59
2023-04-26T19:58:21.850Z,76.47
2023-04-26T20:00:50.248Z,76.80
2023-04-26T20:03:18.728Z,76.83
2023-04-26T20:05:47.200Z,76.84
2023-04-26T20:08:15.794Z,76.74
2023-04-26T20:10:44.104Z,77.03
2023-04-26T20:13:12.481Z,77.05
2023-04-26T20:15:40.744Z,76.55
2023-04-26T20:18:09.063Z,76.83
2023-04-26T20:20:37.408Z,77.00
2023-04-26T20:23:05.719Z,77.24
2023-04-26T20:25:34.017Z,77.30
2023-04-26T20:28:04.128Z,77.33
2023-04-26T20:30:34.048Z,77.12
2023-04-26T20:33:02.587Z,77.13
2023-04-26T20:35:31.142Z,77.19
2023-04-26T20:37:59.426Z,77.63
2023-04-26T20:40:27.813Z,78.06
2023-04-26T20:42:56.329Z,78.76
2023-04-26T20:45:25.566Z,78.70
2023-04-26T20:47:54.084Z,78.68
2023-04-26T20:50:22.512Z,79.17
2023-04-26T20:52:50.938Z,79.24
2023-04-26T20:55:19.476Z,79.37
2023-04-26T20:57:47.919Z,79.27
2023-04-26T21:00:16.747Z,79.28
2023-04-26T21:02:45.277Z,79.49
2023-04-26T21:05:13.668Z,80.20
2023-04-26T21:07:41.916Z,79.85
2023-04-26T21:10:10.713Z,80.12
2023-04-26T21:12:39.067Z,80.24
2023-04-26T21:15:08.136Z,80.50
2023-04-26T21:17:36.675Z,80.54
2023-04-26T21:20:05.525Z,80.51
2023-04-26T21:22:33.895Z,80.67
2023-04-26T21:25:02.514Z,80.89
2023-04-26T21:27:30.894Z,81.06
2023-04-26T21:29:59.233Z,81.46
2023-04-26T21:32:27.635Z,81.66
2023-04-26T21:34:56.083Z,81.61
2023-04-26T21:37:24.707Z,81.63
2023-04-26T21:39:53.770Z,81.30
2023-04-26T21:42:22.156Z,81.05
2023-04-26T21:44:50.694Z,81.02
2023-04-26T21:47:20.051Z,81.04
2023-04-26T21:49:49.044Z,81.15
2023-04-26T21:52:19.052Z,81.18
2023-04-26T21:54:47.326Z,81.06
2023-04-26T21:57:15.736Z,81.36
2023-04-26T21:59:44.682Z,81.23
2023-04-26T22:02:13.139Z,81.07
2023-04-26T22:04:41.710Z,81.37
2023-04-26T22:07:10.112Z,81.70
2023-04-26T22:09:38.414Z,81.83
2023-04-26T22:12:06.862Z,81.66
2023-04-26T22:14:35.181Z,81.70
2023-04-26T22:17:03.954Z,81.34
2023-04-26T22:19:32.236Z,81.05
2023-04-26T22:22:00.722Z,81.03
2023-04-26T22:24:28.998Z,80.72
2023-04-26T22:26:57.364Z,80.55
2023-04-26T22:29:25.868Z,80.20
2023-04-26T22:31:54.250Z,79.97
2023-04-26T22:34:22.605Z,79.74
2023-04-26T22:36:51.008Z,79.89
2023-04-26T22:39:19.393Z,79.77
2023-04-26T22:41:47.787Z,79.60
2023-04-26T22:44:16.819Z,79.77
2023-04-26T22:46:45.156Z,79.75
2023-04-26T22:49:13.845Z,80.20
2023-04-26T22:51:48.183Z,80.80
2023-04-26T22:54:22.226Z,80.89
2023-04-26T22:56:50.508Z,81.07
2023-04-26T22:59:18.784Z,81.11
2023-04-26T23:01:47.291Z,81.36
2023-04-26T23:04:15.858Z,81.46
2023-04-26T23:06:44.138Z,81.81
2023-04-26T23:09:12.881Z,81.89
2023-04-26T23:11:41.528Z,82.34
2023-04-26T23:14:10.274Z,82.31
2023-04-26T23:16:38.941Z,82.94
2023-04-26T23:19:07.272Z,82.98
2023-04-26T23:21:35.594Z,83.43
2023-04-26T23:24:04.475Z,83.65
2023-04-26T23:26:32.763Z,84.01
2023-04-26T23:29:01.088Z,83.95
2023-04-26T23:31:29.532Z,84.21
2023-04-26T23:33:58.013Z,84.29
2023-04-26T23:36:26.655Z,84.63
2023-04-26T23:38:55.064Z,85.07
2023-04-26T23:41:23.442Z,85.00
2023-04-26T23:43:51.741Z,85.84
2023-04-26T23:46:20.129Z,86.10
2023-04-26T23:48:48.600Z,86.63
2023-04-26T23:51:16.959Z,87.44
2023-04-26T23:53:45.514Z,87.84
2023-04-26T23:56:14.073Z,87.97
2023-04-26T23:58:42.372Z,88.05
